sensor_id;sensor_type;location;lat;lon;timestamp;P1;durP1;ratioP1;P2;durP2;ratioP2
7383;SDS011;3733;47.994;8.820;2023-04-24T00:01:30;2.70;;;1.30;;
7383;SDS011;3733;47.994;8.820;2023-04-24T00:03:56;0.97;;;0.97;;
7383;SDS011;3733;47.994;8.820;2023-04-24T00:06:24;1.40;;;1.23;;
7383;SDS011;3733;47.994;8.820;2023-04-24T00:08:59;0.90;;;0.90;;
7383;SDS011;3733;47.994;8.820;2023-04-24T00:11:26;1.03;;;0.90;;
7383;SDS011;3733;47.994;8.820;2023-04-24T00:13:52;1.73;;;1.30;;
7383;SDS011;3733;47.994;8.820;2023-04-24T00:16:18;1.27;;;1.10;;
7383;SDS011;3733;47.994;8.820;2023-04-24T00:18:43;1.13;;;1.00;;
7383;SDS011;3733;47.994;8.820;2023-04-24T00:21:10;1.13;;;1.03;;
7383;SDS011;3733;47.994;8.820;2023-04-24T00:23:35;1.63;;;1.10;;
7383;SDS011;3733;47.994;8.820;2023-04-24T00:26:01;1.27;;;1.17;;
7383;SDS011;3733;47.994;8.820;2023-04-24T00:28:27;3.83;;;1.00;;
7383;SDS011;3733;47.994;8.820;2023-04-24T00:30:53;1.20;;;1.10;;
7383;SDS011;3733;47.994;8.820;2023-04-24T00:33:19;1.50;;;1.20;;
7383;SDS011;3733;47.994;8.820;2023-04-24T00:35:45;1.60;;;0.93;;
7383;SDS011;3733;47.994;8.820;2023-04-24T00:38:10;0.93;;;0.93;;
7383;SDS011;3733;47.994;8.820;2023-04-24T00:40:36;1.17;;;1.10;;
7383;SDS011;3733;47.994;8.820;2023-04-24T00:43:01;2.33;;;1.30;;
7383;SDS011;3733;47.994;8.820;2023-04-24T00:45:27;3.80;;;1.27;;
7383;SDS011;3733;47.994;8.820;2023-04-24T00:47:53;2.87;;;1.10;;
7383;SDS011;3733;47.994;8.820;2023-04-24T00:50:18;1.20;;;1.10;;
7383;SDS011;3733;47.994;8.820;2023-04-24T00:52:46;1.30;;;1.10;;
7383;SDS011;3733;47.994;8.820;2023-04-24T00:55:12;1.67;;;1.30;;
7383;SDS011;3733;47.994;8.820;2023-04-24T00:57:37;2.30;;;1.30;;
7383;SDS011;3733;47.994;8.820;2023-04-24T01:00:04;1.13;;;1.13;;
7383;SDS011;3733;47.994;8.820;2023-04-24T01:02:30;0.97;;;0.90;;
7383;SDS011;3733;47.994;8.820;2023-04-24T01:04:59;4.70;;;1.00;;
7383;SDS011;3733;47.994;8.820;2023-04-24T01:07:25;1.97;;;1.50;;
7383;SDS011;3733;47.994;8.820;2023-04-24T01:09:52;1.40;;;1.10;;
7383;SDS011;3733;47.994;8.820;2023-04-24T01:12:18;1.17;;;1.07;;
7383;SDS011;3733;47.994;8.820;2023-04-24T01:14:44;5.30;;;1.23;;
7383;SDS011;3733;47.994;8.820;2023-04-24T01:17:10;1.70;;;1.23;;
7383;SDS011;3733;47.994;8.820;2023-04-24T01:19:36;5.80;;;1.53;;
7383;SDS011;3733;47.994;8.820;2023-04-24T01:22:03;2.03;;;1.30;;
7383;SDS011;3733;47.994;8.820;2023-04-24T01:24:33;1.73;;;1.20;;
7383;SDS011;3733;47.994;8.820;2023-04-24T01:26:59;4.53;;;1.30;;
7383;SDS011;3733;47.994;8.820;2023-04-24T01:29:26;2.10;;;1.33;;
7383;SDS011;3733;47.994;8.820;2023-04-24T01:31:52;1.60;;;1.10;;
7383;SDS011;3733;47.994;8.820;2023-04-24T01:34:18;2.50;;;1.30;;
7383;SDS011;3733;47.994;8.820;2023-04-24T01:36:45;3.33;;;1.20;;
7383;SDS011;3733;47.994;8.820;2023-04-24T01:39:11;1.70;;;1.03;;
7383;SDS011;3733;47.994;8.820;2023-04-24T01:41:37;2.80;;;1.13;;
7383;SDS011;3733;47.994;8.820;2023-04-24T01:44:03;1.73;;;1.20;;
7383;SDS011;3733;47.994;8.820;2023-04-24T01:46:29;4.03;;;1.30;;
7383;SDS011;3733;47.994;8.820;2023-04-24T01:48:56;1.87;;;1.50;;
7383;SDS011;3733;47.994;8.820;2023-04-24T01:51:25;1.20;;;1.10;;
7383;SDS011;3733;47.994;8.820;2023-04-24T01:53:50;1.40;;;1.30;;
7383;SDS011;3733;47.994;8.820;2023-04-24T01:56:16;3.03;;;1.57;;
7383;SDS011;3733;47.994;8.820;2023-04-24T01:58:42;1.30;;;1.20;;
7383;SDS011;3733;47.994;8.820;2023-04-24T02:01:08;6.20;;;1.50;;
7383;SDS011;3733;47.994;8.820;2023-04-24T02:03:34;2.20;;;1.63;;
7383;SDS011;3733;47.994;8.820;2023-04-24T02:06:00;3.47;;;1.67;;
7383;SDS011;3733;47.994;8.820;2023-04-24T02:08:25;2.90;;;1.30;;
7383;SDS011;3733;47.994;8.820;2023-04-24T02:10:51;9.03;;;3.10;;
7383;SDS011;3733;47.994;8.820;2023-04-24T02:13:16;6.57;;;2.70;;
7383;SDS011;3733;47.994;8.820;2023-04-24T02:15:42;4.60;;;1.50;;
7383;SDS011;3733;47.994;8.820;2023-04-24T02:18:07;2.70;;;1.90;;
7383;SDS011;3733;47.994;8.820;2023-04-24T02:20:33;6.20;;;2.60;;
7383;SDS011;3733;47.994;8.820;2023-04-24T02:23:00;2.23;;;1.50;;
7383;SDS011;3733;47.994;8.820;2023-04-24T02:25:26;2.73;;;1.70;;
7383;SDS011;3733;47.994;8.820;2023-04-24T02:27:52;2.10;;;1.50;;
7383;SDS011;3733;47.994;8.820;2023-04-24T02:30:17;3.73;;;1.70;;
7383;SDS011;3733;47.994;8.820;2023-04-24T02:32:43;1.40;;;1.30;;
7383;SDS011;3733;47.994;8.820;2023-04-24T02:35:08;2.90;;;1.30;;
7383;SDS011;3733;47.994;8.820;2023-04-24T02:37:34;1.40;;;1.30;;
7383;SDS011;3733;47.994;8.820;2023-04-24T02:40:00;1.40;;;1.30;;
7383;SDS011;3733;47.994;8.820;2023-04-24T02:42:25;1.50;;;1.40;;
7383;SDS011;3733;47.994;8.820;2023-04-24T02:44:51;2.10;;;1.67;;
7383;SDS011;3733;47.994;8.820;2023-04-24T02:47:17;1.63;;;1.37;;
7383;SDS011;3733;47.994;8.820;2023-04-24T02:49:42;1.50;;;1.40;;
7383;SDS011;3733;47.994;8.820;2023-04-24T02:52:08;2.00;;;1.30;;
7383;SDS011;3733;47.994;8.820;2023-04-24T02:54:33;2.17;;;1.67;;
7383;SDS011;3733;47.994;8.820;2023-04-24T02:56:59;1.63;;;1.53;;
7383;SDS011;3733;47.994;8.820;2023-04-24T02:59:26;1.67;;;1.40;;
7383;SDS011;3733;47.994;8.820;2023-04-24T03:01:53;2.83;;;1.53;;
7383;SDS011;3733;47.994;8.820;2023-04-24T03:04:19;2.60;;;1.60;;
7383;SDS011;3733;47.994;8.820;2023-04-24T03:06:45;1.70;;;1.40;;
7383;SDS011;3733;47.994;8.820;2023-04-24T03:09:11;3.20;;;1.70;;
7383;SDS011;3733;47.994;8.820;2023-04-24T03:11:36;3.60;;;1.60;;
7383;SDS011;3733;47.994;8.820;2023-04-24T03:14:02;1.60;;;1.50;;
7383;SDS011;3733;47.994;8.820;2023-04-24T03:16:27;2.83;;;1.50;;
7383;SDS011;3733;47.994;8.820;2023-04-24T03:18:53;1.60;;;1.50;;
7383;SDS011;3733;47.994;8.820;2023-04-24T03:21:19;3.47;;;1.70;;
7383;SDS011;3733;47.994;8.820;2023-04-24T03:23:45;3.00;;;1.73;;
7383;SDS011;3733;47.994;8.820;2023-04-24T03:26:10;2.37;;;1.63;;
7383;SDS011;3733;47.994;8.820;2023-04-24T03:28:36;2.20;;;1.60;;
7383;SDS011;3733;47.994;8.820;2023-04-24T03:31:02;4.10;;;1.97;;
7383;SDS011;3733;47.994;8.820;2023-04-24T03:33:28;1.67;;;1.43;;
7383;SDS011;3733;47.994;8.820;2023-04-24T03:35:54;2.23;;;1.60;;
7383;SDS011;3733;47.994;8.820;2023-04-24T03:38:20;2.10;;;1.20;;
7383;SDS011;3733;47.994;8.820;2023-04-24T03:40:46;4.27;;;1.67;;
7383;SDS011;3733;47.994;8.820;2023-04-24T03:43:11;1.60;;;1.50;;
7383;SDS011;3733;47.994;8.820;2023-04-24T03:45:37;1.30;;;1.20;;
7383;SDS011;3733;47.994;8.820;2023-04-24T03:48:02;4.80;;;2.50;;
7383;SDS011;3733;47.994;8.820;2023-04-24T03:50:28;6.10;;;1.90;;
7383;SDS011;3733;47.994;8.820;2023-04-24T03:52:54;1.47;;;1.37;;
7383;SDS011;3733;47.994;8.820;2023-04-24T03:55:19;5.77;;;1.50;;
7383;SDS011;3733;47.994;8.820;2023-04-24T03:57:45;1.70;;;1.60;;
7383;SDS011;3733;47.994;8.820;2023-04-24T04:00:11;1.53;;;1.43;;
7383;SDS011;3733;47.994;8.820;2023-04-24T04:02:37;2.20;;;1.70;;
7383;SDS011;3733;47.994;8.820;2023-04-24T04:05:02;2.67;;;1.80;;
7383;SDS011;3733;47.994;8.820;2023-04-24T04:07:28;1.63;;;1.53;;
7383;SDS011;3733;47.994;8.820;2023-04-24T04:09:54;3.33;;;1.67;;
7383;SDS011;3733;47.994;8.820;2023-04-24T04:12:20;1.73;;;1.20;;
7383;SDS011;3733;47.994;8.820;2023-04-24T04:14:46;2.07;;;1.67;;
7383;SDS011;3733;47.994;8.820;2023-04-24T04:17:11;1.67;;;1.13;;
7383;SDS011;3733;47.994;8.820;2023-04-24T04:19:37;3.33;;;2.70;;
7383;SDS011;3733;47.994;8.820;2023-04-24T04:22:02;1.60;;;1.50;;
7383;SDS011;3733;47.994;8.820;2023-04-24T04:24:28;2.20;;;1.30;;
7383;SDS011;3733;47.994;8.820;2023-04-24T04:26:54;1.13;;;1.13;;
7383;SDS011;3733;47.994;8.820;2023-04-24T04:29:23;5.63;;;1.40;;
7383;SDS011;3733;47.994;8.820;2023-04-24T04:31:48;1.47;;;1.37;;
7383;SDS011;3733;47.994;8.820;2023-04-24T04:34:14;1.20;;;1.17;;
7383;SDS011;3733;47.994;8.820;2023-04-24T04:36:40;1.87;;;1.30;;
7383;SDS011;3733;47.994;8.820;2023-04-24T04:39:06;1.53;;;1.30;;
7383;SDS011;3733;47.994;8.820;2023-04-24T04:41:32;2.60;;;1.13;;
7383;SDS011;3733;47.994;8.820;2023-04-24T04:44:00;7.03;;;1.27;;
7383;SDS011;3733;47.994;8.820;2023-04-24T04:46:26;2.17;;;1.20;;
7383;SDS011;3733;47.994;8.820;2023-04-24T04:48:55;1.23;;;1.13;;
7383;SDS011;3733;47.994;8.820;2023-04-24T04:51:21;1.57;;;1.47;;
7383;SDS011;3733;47.994;8.820;2023-04-24T04:53:47;1.30;;;1.20;;
7383;SDS011;3733;47.994;8.820;2023-04-24T04:56:12;1.50;;;1.40;;
7383;SDS011;3733;47.994;8.820;2023-04-24T04:58:38;1.17;;;1.10;;
7383;SDS011;3733;47.994;8.820;2023-04-24T05:01:04;1.30;;;1.20;;
7383;SDS011;3733;47.994;8.820;2023-04-24T05:03:29;2.60;;;1.60;;
7383;SDS011;3733;47.994;8.820;2023-04-24T05:05:55;1.30;;;1.20;;
7383;SDS011;3733;47.994;8.820;2023-04-24T05:08:20;3.73;;;1.30;;
7383;SDS011;3733;47.994;8.820;2023-04-24T05:10:46;3.53;;;1.63;;
7383;SDS011;3733;47.994;8.820;2023-04-24T05:13:12;1.10;;;1.10;;
7383;SDS011;3733;47.994;8.820;2023-04-24T05:15:37;5.47;;;1.80;;
7383;SDS011;3733;47.994;8.820;2023-04-24T05:18:03;1.27;;;1.17;;
7383;SDS011;3733;47.994;8.820;2023-04-24T05:20:29;2.63;;;1.33;;
7383;SDS011;3733;47.994;8.820;2023-04-24T05:22:54;1.40;;;1.30;;
7383;SDS011;3733;47.994;8.820;2023-04-24T05:25:20;1.47;;;1.37;;
7383;SDS011;3733;47.994;8.820;2023-04-24T05:27:46;1.10;;;1.10;;
7383;SDS011;3733;47.994;8.820;2023-04-24T05:30:12;1.37;;;1.27;;
7383;SDS011;3733;47.994;8.820;2023-04-24T05:32:37;1.67;;;1.40;;
7383;SDS011;3733;47.994;8.820;2023-04-24T05:35:03;1.20;;;1.10;;
7383;SDS011;3733;47.994;8.820;2023-04-24T05:37:29;1.13;;;1.00;;
7383;SDS011;3733;47.994;8.820;2023-04-24T05:39:54;2.30;;;1.20;;
7383;SDS011;3733;47.994;8.820;2023-04-24T05:42:20;2.40;;;1.30;;
7383;SDS011;3733;47.994;8.820;2023-04-24T05:44:46;1.80;;;1.30;;
7383;SDS011;3733;47.994;8.820;2023-04-24T05:47:11;1.43;;;1.33;;
7383;SDS011;3733;47.994;8.820;2023-04-24T05:49:37;1.40;;;1.30;;
7383;SDS011;3733;47.994;8.820;2023-04-24T05:52:02;2.73;;;1.40;;
7383;SDS011;3733;47.994;8.820;2023-04-24T05:54:30;1.33;;;1.23;;
7383;SDS011;3733;47.994;8.820;2023-04-24T05:56:56;1.43;;;1.33;;
7383;SDS011;3733;47.994;8.820;2023-04-24T05:59:21;1.33;;;1.23;;
7383;SDS011;3733;47.994;8.820;2023-04-24T06:01:47;1.20;;;1.10;;
7383;SDS011;3733;47.994;8.820;2023-04-24T06:04:12;1.53;;;1.27;;
7383;SDS011;3733;47.994;8.820;2023-04-24T06:06:39;2.50;;;1.17;;
7383;SDS011;3733;47.994;8.820;2023-04-24T06:09:05;1.20;;;1.10;;
7383;SDS011;3733;47.994;8.820;2023-04-24T06:11:30;1.97;;;1.37;;
7383;SDS011;3733;47.994;8.820;2023-04-24T06:13:56;1.40;;;1.30;;
7383;SDS011;3733;47.994;8.820;2023-04-24T06:16:22;1.60;;;1.50;;
7383;SDS011;3733;47.994;8.820;2023-04-24T06:18:47;1.40;;;1.30;;
7383;SDS011;3733;47.994;8.820;2023-04-24T06:21:13;1.50;;;1.40;;
7383;SDS011;3733;47.994;8.820;2023-04-24T06:23:40;1.83;;;1.60;;
7383;SDS011;3733;47.994;8.820;2023-04-24T06:26:05;2.30;;;1.60;;
7383;SDS011;3733;47.994;8.820;2023-04-24T06:28:31;3.90;;;1.60;;
7383;SDS011;3733;47.994;8.820;2023-04-24T06:30:57;1.50;;;1.40;;
7383;SDS011;3733;47.994;8.820;2023-04-24T06:33:22;1.70;;;1.60;;
7383;SDS011;3733;47.994;8.820;2023-04-24T06:35:48;2.17;;;1.77;;
7383;SDS011;3733;47.994;8.820;2023-04-24T06:38:13;3.07;;;1.70;;
7383;SDS011;3733;47.994;8.820;2023-04-24T06:40:40;1.77;;;1.67;;
7383;SDS011;3733;47.994;8.820;2023-04-24T06:43:06;2.23;;;2.03;;
7383;SDS011;3733;47.994;8.820;2023-04-24T06:45:32;2.67;;;1.83;;
7383;SDS011;3733;47.994;8.820;2023-04-24T06:47:57;1.83;;;1.70;;
7383;SDS011;3733;47.994;8.820;2023-04-24T06:50:23;2.87;;;1.90;;
7383;SDS011;3733;47.994;8.820;2023-04-24T06:52:49;1.63;;;1.53;;
7383;SDS011;3733;47.994;8.820;2023-04-24T06:55:15;2.13;;;1.53;;
7383;SDS011;3733;47.994;8.820;2023-04-24T06:57:41;1.83;;;1.70;;
7383;SDS011;3733;47.994;8.820;2023-04-24T07:00:07;2.20;;;2.07;;
7383;SDS011;3733;47.994;8.820;2023-04-24T07:02:34;2.30;;;1.93;;
7383;SDS011;3733;47.994;8.820;2023-04-24T07:05:00;1.80;;;1.70;;
7383;SDS011;3733;47.994;8.820;2023-04-24T07:07:26;1.93;;;1.70;;
7383;SDS011;3733;47.994;8.820;2023-04-24T07:09:52;1.87;;;1.77;;
7383;SDS011;3733;47.994;8.820;2023-04-24T07:12:19;6.50;;;2.20;;
7383;SDS011;3733;47.994;8.820;2023-04-24T07:14:46;1.77;;;1.63;;
7383;SDS011;3733;47.994;8.820;2023-04-24T07:17:12;2.37;;;1.90;;
7383;SDS011;3733;47.994;8.820;2023-04-24T07:19:38;4.70;;;2.10;;
7383;SDS011;3733;47.994;8.820;2023-04-24T07:22:04;1.97;;;1.77;;
7383;SDS011;3733;47.994;8.820;2023-04-24T07:24:30;2.90;;;1.90;;
7383;SDS011;3733;47.994;8.820;2023-04-24T07:26:57;2.60;;;1.80;;
7383;SDS011;3733;47.994;8.820;2023-04-24T07:29:23;3.50;;;2.17;;
7383;SDS011;3733;47.994;8.820;2023-04-24T07:31:48;2.33;;;2.13;;
7383;SDS011;3733;47.994;8.820;2023-04-24T07:34:14;2.30;;;1.90;;
7383;SDS011;3733;47.994;8.820;2023-04-24T07:36:40;3.43;;;1.90;;
7383;SDS011;3733;47.994;8.820;2023-04-24T07:39:06;2.20;;;1.70;;
7383;SDS011;3733;47.994;8.820;2023-04-24T07:41:33;4.53;;;1.80;;
7383;SDS011;3733;47.994;8.820;2023-04-24T07:43:58;1.80;;;1.70;;
7383;SDS011;3733;47.994;8.820;2023-04-24T07:46:24;7.73;;;2.07;;
7383;SDS011;3733;47.994;8.820;2023-04-24T07:48:50;4.20;;;1.70;;
7383;SDS011;3733;47.994;8.820;2023-04-24T07:51:15;1.80;;;1.70;;
7383;SDS011;3733;47.994;8.820;2023-04-24T07:53:42;1.87;;;1.73;;
7383;SDS011;3733;47.994;8.820;2023-04-24T07:56:08;7.33;;;2.00;;
7383;SDS011;3733;47.994;8.820;2023-04-24T07:58:34;2.37;;;1.77;;
7383;SDS011;3733;47.994;8.820;2023-04-24T08:01:00;2.03;;;1.70;;
7383;SDS011;3733;47.994;8.820;2023-04-24T08:03:26;2.07;;;1.83;;
7383;SDS011;3733;47.994;8.820;2023-04-24T08:05:51;2.20;;;2.00;;
7383;SDS011;3733;47.994;8.820;2023-04-24T08:08:17;1.80;;;1.70;;
7383;SDS011;3733;47.994;8.820;2023-04-24T08:10:43;2.13;;;1.90;;
7383;SDS011;3733;47.994;8.820;2023-04-24T08:13:08;2.73;;;1.87;;
7383;SDS011;3733;47.994;8.820;2023-04-24T08:15:36;2.03;;;1.90;;
7383;SDS011;3733;47.994;8.820;2023-04-24T08:18:02;2.70;;;1.80;;
7383;SDS011;3733;47.994;8.820;2023-04-24T08:20:27;2.00;;;1.90;;
7383;SDS011;3733;47.994;8.820;2023-04-24T08:22:53;1.80;;;1.70;;
7383;SDS011;3733;47.994;8.820;2023-04-24T08:25:19;2.40;;;1.70;;
7383;SDS011;3733;47.994;8.820;2023-04-24T08:27:45;3.23;;;1.90;;
7383;SDS011;3733;47.994;8.820;2023-04-24T08:30:10;2.37;;;2.00;;
7383;SDS011;3733;47.994;8.820;2023-04-24T08:32:36;2.13;;;1.83;;
7383;SDS011;3733;47.994;8.820;2023-04-24T08:35:02;2.37;;;1.80;;
7383;SDS011;3733;47.994;8.820;2023-04-24T08:37:28;3.43;;;2.10;;
7383;SDS011;3733;47.994;8.820;2023-04-24T08:39:54;1.80;;;1.70;;
7383;SDS011;3733;47.994;8.820;2023-04-24T08:42:20;3.30;;;2.03;;
7383;SDS011;3733;47.994;8.820;2023-04-24T08:44:46;2.10;;;1.90;;
7383;SDS011;3733;47.994;8.820;2023-04-24T08:47:14;2.27;;;1.77;;
7383;SDS011;3733;47.994;8.820;2023-04-24T08:49:41;2.00;;;1.90;;
7383;SDS011;3733;47.994;8.820;2023-04-24T08:52:07;3.60;;;1.97;;
7383;SDS011;3733;47.994;8.820;2023-04-24T08:54:36;1.70;;;1.60;;
7383;SDS011;3733;47.994;8.820;2023-04-24T08:57:03;3.17;;;2.20;;
7383;SDS011;3733;47.994;8.820;2023-04-24T08:59:29;2.40;;;2.20;;
7383;SDS011;3733;47.994;8.820;2023-04-24T09:01:55;4.03;;;2.00;;
7383;SDS011;3733;47.994;8.820;2023-04-24T09:04:22;2.00;;;1.90;;
7383;SDS011;3733;47.994;8.820;2023-04-24T09:06:50;4.20;;;1.80;;
7383;SDS011;3733;47.994;8.820;2023-04-24T09:09:17;5.10;;;1.90;;
7383;SDS011;3733;47.994;8.820;2023-04-24T09:11:43;3.23;;;2.00;;
7383;SDS011;3733;47.994;8.820;2023-04-24T09:14:09;2.63;;;2.40;;
7383;SDS011;3733;47.994;8.820;2023-04-24T09:16:36;2.70;;;2.03;;
7383;SDS011;3733;47.994;8.820;2023-04-24T09:19:01;2.77;;;1.90;;
7383;SDS011;3733;47.994;8.820;2023-04-24T09:21:31;5.37;;;2.00;;
7383;SDS011;3733;47.994;8.820;2023-04-24T09:24:01;2.90;;;1.80;;
7383;SDS011;3733;47.994;8.820;2023-04-24T09:26:31;1.97;;;1.87;;
7383;SDS011;3733;47.994;8.820;2023-04-24T09:28:59;2.43;;;2.03;;
7383;SDS011;3733;47.994;8.820;2023-04-24T09:31:26;2.20;;;2.00;;
7383;SDS011;3733;47.994;8.820;2023-04-24T09:36:26;3.40;;;2.50;;
7383;SDS011;3733;47.994;8.820;2023-04-24T09:38:53;2.70;;;2.00;;
7383;SDS011;3733;47.994;8.820;2023-04-24T09:41:23;4.60;;;2.00;;
7383;SDS011;3733;47.994;8.820;2023-04-24T09:43:49;4.40;;;2.10;;
7383;SDS011;3733;47.994;8.820;2023-04-24T09:46:15;3.60;;;2.30;;
7383;SDS011;3733;47.994;8.820;2023-04-24T09:48:43;4.73;;;2.10;;
7383;SDS011;3733;47.994;8.820;2023-04-24T09:51:09;4.20;;;2.30;;
7383;SDS011;3733;47.994;8.820;2023-04-24T09:53:38;2.90;;;2.60;;
7383;SDS011;3733;47.994;8.820;2023-04-24T09:56:10;4.33;;;2.20;;
7383;SDS011;3733;47.994;8.820;2023-04-24T09:58:37;2.93;;;2.73;;
7383;SDS011;3733;47.994;8.820;2023-04-24T10:01:03;2.67;;;2.30;;
7383;SDS011;3733;47.994;8.820;2023-04-24T10:03:29;3.10;;;2.20;;
7383;SDS011;3733;47.994;8.820;2023-04-24T10:05:59;2.60;;;2.00;;
7383;SDS011;3733;47.994;8.820;2023-04-24T10:08:25;3.23;;;2.03;;
7383;SDS011;3733;47.994;8.820;2023-04-24T10:10:51;2.43;;;2.23;;
7383;SDS011;3733;47.994;8.820;2023-04-24T10:13:17;2.90;;;2.07;;
7383;SDS011;3733;47.994;8.820;2023-04-24T10:15:43;3.13;;;1.97;;
7383;SDS011;3733;47.994;8.820;2023-04-24T10:18:09;2.00;;;1.80;;
7383;SDS011;3733;47.994;8.820;2023-04-24T10:20:37;2.57;;;2.37;;
7383;SDS011;3733;47.994;8.820;2023-04-24T10:23:04;5.07;;;2.23;;
7383;SDS011;3733;47.994;8.820;2023-04-24T10:25:31;2.30;;;2.10;;
7383;SDS011;3733;47.994;8.820;2023-04-24T10:27:58;3.80;;;2.20;;
7383;SDS011;3733;47.994;8.820;2023-04-24T10:30:29;2.40;;;2.20;;
7383;SDS011;3733;47.994;8.820;2023-04-24T10:33:05;5.07;;;2.13;;
7383;SDS011;3733;47.994;8.820;2023-04-24T10:35:34;2.70;;;2.03;;
7383;SDS011;3733;47.994;8.820;2023-04-24T10:38:03;2.50;;;2.30;;
7383;SDS011;3733;47.994;8.820;2023-04-24T10:40:33;10.90;;;2.60;;
7383;SDS011;3733;47.994;8.820;2023-04-24T10:43:03;7.20;;;3.00;;
7383;SDS011;3733;47.994;8.820;2023-04-24T10:45:32;3.10;;;2.10;;
7383;SDS011;3733;47.994;8.820;2023-04-24T10:50:28;2.90;;;2.30;;
7383;SDS011;3733;47.994;8.820;2023-04-24T10:53:06;3.30;;;2.40;;
7383;SDS011;3733;47.994;8.820;2023-04-24T10:58:12;4.20;;;2.70;;
7383;SDS011;3733;47.994;8.820;2023-04-24T11:00:38;6.07;;;2.63;;
7383;SDS011;3733;47.994;8.820;2023-04-24T11:03:23;5.90;;;2.00;;
7383;SDS011;3733;47.994;8.820;2023-04-24T11:19:01;4.63;;;2.40;;
7383;SDS011;3733;47.994;8.820;2023-04-24T11:21:41;3.80;;;2.20;;
7383;SDS011;3733;47.994;8.820;2023-04-24T11:34:45;3.43;;;1.87;;
7383;SDS011;3733;47.994;8.820;2023-04-24T11:37:12;1.93;;;1.73;;
7383;SDS011;3733;47.994;8.820;2023-04-24T11:39:38;2.60;;;1.90;;
7383;SDS011;3733;47.994;8.820;2023-04-24T11:42:04;5.00;;;2.07;;
7383;SDS011;3733;47.994;8.820;2023-04-24T11:44:31;3.50;;;1.70;;
7383;SDS011;3733;47.994;8.820;2023-04-24T11:46:59;2.80;;;2.00;;
7383;SDS011;3733;47.994;8.820;2023-04-24T11:49:25;2.00;;;1.90;;
7383;SDS011;3733;47.994;8.820;2023-04-24T11:51:54;1.90;;;1.70;;
7383;SDS011;3733;47.994;8.820;2023-04-24T11:54:20;2.80;;;1.90;;
7383;SDS011;3733;47.994;8.820;2023-04-24T11:56:46;1.73;;;1.60;;
7383;SDS011;3733;47.994;8.820;2023-04-24T11:59:12;2.53;;;2.13;;
7383;SDS011;3733;47.994;8.820;2023-04-24T12:01:45;3.00;;;1.70;;
7383;SDS011;3733;47.994;8.820;2023-04-24T12:04:12;5.73;;;1.73;;
7383;SDS011;3733;47.994;8.820;2023-04-24T12:06:38;3.53;;;1.97;;
7383;SDS011;3733;47.994;8.820;2023-04-24T12:09:04;2.90;;;1.93;;
7383;SDS011;3733;47.994;8.820;2023-04-24T12:11:29;6.73;;;1.90;;
7383;SDS011;3733;47.994;8.820;2023-04-24T12:13:55;3.93;;;1.90;;
7383;SDS011;3733;47.994;8.820;2023-04-24T12:16:21;2.53;;;1.90;;
7383;SDS011;3733;47.994;8.820;2023-04-24T12:18:46;1.80;;;1.70;;
7383;SDS011;3733;47.994;8.820;2023-04-24T12:21:22;1.77;;;1.40;;
7383;SDS011;3733;47.994;8.820;2023-04-24T12:23:50;2.83;;;1.80;;
7383;SDS011;3733;47.994;8.820;2023-04-24T12:26:16;1.67;;;1.57;;
7383;SDS011;3733;47.994;8.820;2023-04-24T12:28:45;1.70;;;1.60;;
7383;SDS011;3733;47.994;8.820;2023-04-24T12:31:13;2.20;;;1.60;;
7383;SDS011;3733;47.994;8.820;2023-04-24T12:33:38;6.07;;;2.00;;
7383;SDS011;3733;47.994;8.820;2023-04-24T12:36:04;3.00;;;1.70;;
7383;SDS011;3733;47.994;8.820;2023-04-24T12:38:32;3.93;;;2.00;;
7383;SDS011;3733;47.994;8.820;2023-04-24T12:41:14;5.50;;;1.90;;
7383;SDS011;3733;47.994;8.820;2023-04-24T12:43:50;2.00;;;1.73;;
7383;SDS011;3733;47.994;8.820;2023-04-24T12:46:16;7.67;;;1.90;;
7383;SDS011;3733;47.994;8.820;2023-04-24T12:48:42;2.30;;;1.77;;
7383;SDS011;3733;47.994;8.820;2023-04-24T12:51:07;3.23;;;2.00;;
7383;SDS011;3733;47.994;8.820;2023-04-24T12:53:33;3.00;;;1.70;;
7383;SDS011;3733;47.994;8.820;2023-04-24T12:55:58;4.10;;;1.90;;
7383;SDS011;3733;47.994;8.820;2023-04-24T12:58:24;3.00;;;1.93;;
7383;SDS011;3733;47.994;8.820;2023-04-24T13:00:50;2.90;;;1.90;;
7383;SDS011;3733;47.994;8.820;2023-04-24T13:03:15;2.23;;;2.03;;
7383;SDS011;3733;47.994;8.820;2023-04-24T13:05:42;2.90;;;2.00;;
7383;SDS011;3733;47.994;8.820;2023-04-24T13:08:08;2.57;;;2.37;;
7383;SDS011;3733;47.994;8.820;2023-04-24T13:10:34;2.23;;;1.60;;
7383;SDS011;3733;47.994;8.820;2023-04-24T13:13:00;4.63;;;2.13;;
7383;SDS011;3733;47.994;8.820;2023-04-24T13:15:25;3.50;;;1.80;;
7383;SDS011;3733;47.994;8.820;2023-04-24T13:17:51;1.80;;;1.70;;
7383;SDS011;3733;47.994;8.820;2023-04-24T13:20:17;3.00;;;1.90;;
7383;SDS011;3733;47.994;8.820;2023-04-24T13:22:43;1.90;;;1.80;;
7383;SDS011;3733;47.994;8.820;2023-04-24T13:25:08;4.53;;;2.40;;
7383;SDS011;3733;47.994;8.820;2023-04-24T13:27:35;2.20;;;1.70;;
7383;SDS011;3733;47.994;8.820;2023-04-24T13:30:00;3.20;;;1.70;;
7383;SDS011;3733;47.994;8.820;2023-04-24T13:32:26;2.27;;;1.40;;
7383;SDS011;3733;47.994;8.820;2023-04-24T13:34:53;3.87;;;2.00;;
7383;SDS011;3733;47.994;8.820;2023-04-24T13:37:19;1.80;;;1.53;;
7383;SDS011;3733;47.994;8.820;2023-04-24T13:39:44;2.40;;;1.60;;
7383;SDS011;3733;47.994;8.820;2023-04-24T13:42:10;1.73;;;1.63;;
7383;SDS011;3733;47.994;8.820;2023-04-24T13:44:35;1.50;;;1.40;;
7383;SDS011;3733;47.994;8.820;2023-04-24T13:47:01;2.90;;;1.90;;
7383;SDS011;3733;47.994;8.820;2023-04-24T13:49:27;2.40;;;1.70;;
7383;SDS011;3733;47.994;8.820;2023-04-24T13:51:54;2.40;;;2.20;;
7383;SDS011;3733;47.994;8.820;2023-04-24T13:54:20;2.03;;;1.63;;
7383;SDS011;3733;47.994;8.820;2023-04-24T13:56:48;1.80;;;1.70;;
7383;SDS011;3733;47.994;8.820;2023-04-24T13:59:14;2.00;;;1.87;;
7383;SDS011;3733;47.994;8.820;2023-04-24T14:01:39;3.90;;;2.30;;
7383;SDS011;3733;47.994;8.820;2023-04-24T14:04:05;2.00;;;1.53;;
7383;SDS011;3733;47.994;8.820;2023-04-24T14:06:31;8.53;;;2.40;;
7383;SDS011;3733;47.994;8.820;2023-04-24T14:08:57;2.20;;;2.00;;
7383;SDS011;3733;47.994;8.820;2023-04-24T14:11:22;1.80;;;1.70;;
7383;SDS011;3733;47.994;8.820;2023-04-24T14:13:48;3.20;;;2.43;;
7383;SDS011;3733;47.994;8.820;2023-04-24T14:16:14;3.63;;;1.90;;
7383;SDS011;3733;47.994;8.820;2023-04-24T14:18:40;2.40;;;1.87;;
7383;SDS011;3733;47.994;8.820;2023-04-24T14:21:06;4.80;;;2.23;;
7383;SDS011;3733;47.994;8.820;2023-04-24T14:23:32;3.30;;;2.30;;
7383;SDS011;3733;47.994;8.820;2023-04-24T14:25:58;2.87;;;1.90;;
7383;SDS011;3733;47.994;8.820;2023-04-24T14:28:24;6.30;;;2.20;;
7383;SDS011;3733;47.994;8.820;2023-04-24T14:30:51;3.13;;;2.07;;
7383;SDS011;3733;47.994;8.820;2023-04-24T14:33:17;1.70;;;1.60;;
7383;SDS011;3733;47.994;8.820;2023-04-24T14:35:43;2.17;;;1.97;;
7383;SDS011;3733;47.994;8.820;2023-04-24T14:38:08;2.60;;;2.10;;
7383;SDS011;3733;47.994;8.820;2023-04-24T14:40:34;2.03;;;1.93;;
7383;SDS011;3733;47.994;8.820;2023-04-24T14:43:00;3.87;;;2.00;;
7383;SDS011;3733;47.994;8.820;2023-04-24T14:45:26;4.50;;;1.83;;
7383;SDS011;3733;47.994;8.820;2023-04-24T14:47:52;2.10;;;1.90;;
7383;SDS011;3733;47.994;8.820;2023-04-24T14:50:18;2.07;;;1.97;;
7383;SDS011;3733;47.994;8.820;2023-04-24T14:52:44;5.10;;;1.90;;
7383;SDS011;3733;47.994;8.820;2023-04-24T14:55:10;7.00;;;1.83;;
7383;SDS011;3733;47.994;8.820;2023-04-24T14:57:35;1.87;;;1.77;;
7383;SDS011;3733;47.994;8.820;2023-04-24T15:00:02;2.53;;;2.00;;
7383;SDS011;3733;47.994;8.820;2023-04-24T15:02:31;2.70;;;1.70;;
7383;SDS011;3733;47.994;8.820;2023-04-24T15:04:57;3.00;;;1.80;;
7383;SDS011;3733;47.994;8.820;2023-04-24T15:07:23;1.80;;;1.70;;
7383;SDS011;3733;47.994;8.820;2023-04-24T15:09:49;3.77;;;2.17;;
7383;SDS011;3733;47.994;8.820;2023-04-24T15:12:15;3.13;;;1.93;;
7383;SDS011;3733;47.994;8.820;2023-04-24T15:14:41;1.70;;;1.60;;
7383;SDS011;3733;47.994;8.820;2023-04-24T15:17:06;4.57;;;2.07;;
7383;SDS011;3733;47.994;8.820;2023-04-24T15:19:32;1.80;;;1.70;;
7383;SDS011;3733;47.994;8.820;2023-04-24T15:21:57;1.60;;;1.50;;
7383;SDS011;3733;47.994;8.820;2023-04-24T15:24:23;3.47;;;1.70;;
7383;SDS011;3733;47.994;8.820;2023-04-24T15:26:49;2.80;;;1.90;;
7383;SDS011;3733;47.994;8.820;2023-04-24T15:29:14;3.37;;;2.10;;
7383;SDS011;3733;47.994;8.820;2023-04-24T15:31:40;2.80;;;2.00;;
7383;SDS011;3733;47.994;8.820;2023-04-24T15:34:06;5.50;;;2.30;;
7383;SDS011;3733;47.994;8.820;2023-04-24T15:36:31;2.83;;;2.30;;
7383;SDS011;3733;47.994;8.820;2023-04-24T15:38:57;2.27;;;2.00;;
7383;SDS011;3733;47.994;8.820;2023-04-24T15:41:23;3.00;;;2.10;;